Portada
METAR-TAF:

METAR-TAF

Aeropuertos :

Lárnaca, Chipre

Aeropuerto Internacional de Lárnaca

latitud: 34-53N, longitud: 033-38E, altitud: 2 m

Observación

El informe se hizo hace 33 minutos, a las 06:30 UTC
Viento 6 kt del sureste, variando entre este-sureste y sur
Temperatura 28°C
Humedad 58%
Presión 1010 hPa
Visibilidad 10 km o más
sin nubes por debajo de 1500 m y sin presencia de cumulonimbus.

METAR: LCLK 240630Z 14006KT 110V180 CAVOK 28/19 Q1010 NOSIG

Hora: 10:03 (07:03 UTC)

Pronóstico

El informe se hizo hace 13 horas y 33 minutos, a las 17:30 UTC
Pronóstico válido del 23 a las 18 UTC al 24 a las 18 UTC
Viento 6 kt del noroeste
Visibilidad 10 km o más
sin nubes por debajo de 1500 m y sin presencia de cumulonimbus.
Evolucionando progresivamente
del 24 a las 09 UTC al 24 a las 13 UTC
Viento 14 kt del sur-suroeste

TAF: LCLK 231730Z 2318/2418 32006KT CAVOK BECMG 2409/2413 21014KT

Observaciones y pronósticos meteorológicos de más de 4000 aeropuertos (mensajes METAR y TAF).

Los puntos amarillos y rojos representan las estaciones disponibles.

Ponga el ratón en el punto deseado para ver el nombre de la estación.

Haga clic para ver las observaciones y los pronósticos meteorológicos.

Para cambiar el mapa : haga clic en los botones verdes con una cruz de color negro para hacer un zoom, en el botón verde con un guión para alejar o en las flechas verdes para mapas adyacentes.


METAR-TAF: